SWA32 KCOS-KOKC
Flight info
| Callsign | SWA32 |
|---|---|
| Flight time | 1h 0m |
| Altitude | 26000 |
| Route | BRK JEWLS ROLLS CAMET3 |
| Aircraft | B737/M-SDE2E3FGHIRWXY/LB1 |
Departure
| Time | 2026-04-25 21:31 |
|---|---|
| Airport | City of Colorado Springs Municipal Airport (KCOS) |
Arrival
| Time | 2026-04-25 22:31 |
|---|---|
| Airport | OKC Will Rogers World Airport (KOKC) |
| Time | Latitude | Longitude | Altitude | Speed | Heading |
|---|---|---|---|---|---|
| 2026-04-25 21:09 | 38.79974 | -104.70038 | 6193 ft | 0 kts | 265° |
| 2026-04-25 21:22 | 38.79979 | -104.70046 | 6193 ft | 2 kts | 313° |
| 2026-04-25 21:22 | 38.79993 | -104.70051 | 6192 ft | 3 kts | 344° |
| 2026-04-25 21:23 | 38.80013 | -104.70057 | 6193 ft | 3 kts | 346° |
| 2026-04-25 21:23 | 38.80039 | -104.70066 | 6193 ft | 5 kts | 346° |
| 2026-04-25 21:23 | 38.80078 | -104.70078 | 6193 ft | 7 kts | 346° |
| 2026-04-25 21:23 | 38.80130 | -104.70084 | 6193 ft | 9 kts | 360° |
| 2026-04-25 21:24 | 38.80203 | -104.70085 | 6193 ft | 13 kts | 360° |
| 2026-04-25 21:24 | 38.80305 | -104.70085 | 6193 ft | 16 kts | 360° |
| 2026-04-25 21:24 | 38.80363 | -104.70187 | 6193 ft | 16 kts | 270° |
| 2026-04-25 21:24 | 38.80362 | -104.70331 | 6193 ft | 16 kts | 268° |
| 2026-04-25 21:25 | 38.80363 | -104.70469 | 6193 ft | 15 kts | 271° |
| 2026-04-25 21:25 | 38.80361 | -104.70601 | 6193 ft | 15 kts | 269° |
| 2026-04-25 21:25 | 38.80362 | -104.70728 | 6192 ft | 14 kts | 271° |
| 2026-04-25 21:25 | 38.80363 | -104.70850 | 6192 ft | 13 kts | 270° |
| 2026-04-25 21:26 | 38.80362 | -104.70966 | 6192 ft | 13 kts | 268° |
| 2026-04-25 21:26 | 38.80363 | -104.71079 | 6192 ft | 13 kts | 271° |
| 2026-04-25 21:26 | 38.80363 | -104.71189 | 6192 ft | 12 kts | 269° |
| 2026-04-25 21:26 | 38.80362 | -104.71295 | 6192 ft | 12 kts | 264° |
| 2026-04-25 21:27 | 38.80330 | -104.71348 | 6192 ft | 12 kts | 194° |
| 2026-04-25 21:27 | 38.80250 | -104.71347 | 6192 ft | 11 kts | 178° |
| 2026-04-25 21:27 | 38.80147 | -104.71347 | 6192 ft | 11 kts | 181° |
| 2026-04-25 21:27 | 38.80072 | -104.71349 | 6192 ft | 11 kts | 181° |
| 2026-04-25 21:28 | 38.80022 | -104.71349 | 6192 ft | 10 kts | 180° |
| 2026-04-25 21:28 | 38.79928 | -104.71349 | 6192 ft | 10 kts | 180° |
| 2026-04-25 21:28 | 38.79881 | -104.71348 | 6192 ft | 10 kts | 179° |
| 2026-04-25 21:28 | 38.79814 | -104.71357 | 6192 ft | 10 kts | 202° |
| 2026-04-25 21:29 | 38.79794 | -104.71426 | 6192 ft | 9 kts | 298° |
| 2026-04-25 21:29 | 38.79847 | -104.71474 | 6192 ft | 10 kts | 329° |
| 2026-04-25 21:29 | 38.79904 | -104.71514 | 6190 ft | 0 kts | 332° |
| 2026-04-25 21:29 | 38.79931 | -104.71532 | 6191 ft | 17 kts | 334° |
| 2026-04-25 21:30 | 38.80049 | -104.71575 | 6191 ft | 20 kts | 348° |
| 2026-04-25 21:30 | 38.80495 | -104.71593 | 6193 ft | 110 kts | 359° |
| 2026-04-25 21:30 | 38.81540 | -104.71592 | 6205 ft | 187 kts | 1° |
| 2026-04-25 21:30 | 38.82467 | -104.71612 | 6583 ft | 210 kts | 2° |
| 2026-04-25 21:31 | 38.84474 | -104.71575 | 7932 ft | 216 kts | 13° |
| 2026-04-25 21:31 | 38.85731 | -104.70734 | 8887 ft | 208 kts | 50° |
| 2026-04-25 21:31 | 38.86395 | -104.69019 | 9261 ft | 229 kts | 85° |
| 2026-04-25 21:31 | 38.86308 | -104.67007 | 10167 ft | 216 kts | 103° |
| 2026-04-25 21:32 | 38.86010 | -104.65108 | 11015 ft | 215 kts | 114° |
| 2026-04-25 21:32 | 38.85136 | -104.63681 | 11909 ft | 197 kts | 147° |
| 2026-04-25 21:32 | 38.84063 | -104.62624 | 12825 ft | 193 kts | 148° |
| 2026-04-25 21:32 | 38.83023 | -104.61582 | 13759 ft | 186 kts | 148° |
| 2026-04-25 21:33 | 38.82049 | -104.60575 | 14580 ft | 173 kts | 148° |
| 2026-04-25 21:33 | 38.81098 | -104.59570 | 15023 ft | 190 kts | 147° |
| 2026-04-25 21:33 | 38.79971 | -104.58354 | 15008 ft | 233 kts | 144° |
| 2026-04-25 21:33 | 38.78711 | -104.56795 | 15207 ft | 265 kts | 138° |
| 2026-04-25 21:34 | 38.77468 | -104.54924 | 15680 ft | 287 kts | 132° |
| 2026-04-25 21:34 | 38.76268 | -104.52753 | 16139 ft | 310 kts | 127° |
| 2026-04-25 21:34 | 38.75117 | -104.50306 | 16597 ft | 331 kts | 122° |
| 2026-04-25 21:34 | 38.74010 | -104.47615 | 17057 ft | 352 kts | 120° |
| 2026-04-25 21:35 | 38.72930 | -104.44705 | 17520 ft | 371 kts | 117° |
| 2026-04-25 21:35 | 38.71863 | -104.41613 | 17983 ft | 388 kts | 116° |
| 2026-04-25 21:35 | 38.70792 | -104.38358 | 18402 ft | 404 kts | 115° |
| 2026-04-25 21:35 | 38.69707 | -104.34965 | 18797 ft | 419 kts | 115° |
| 2026-04-25 21:36 | 38.68598 | -104.31452 | 19196 ft | 432 kts | 114° |
| 2026-04-25 21:36 | 38.67461 | -104.27835 | 19595 ft | 444 kts | 114° |
| 2026-04-25 21:36 | 38.66296 | -104.24126 | 20007 ft | 454 kts | 114° |
| 2026-04-25 21:36 | 38.65106 | -104.20343 | 20421 ft | 463 kts | 114° |
| 2026-04-25 21:37 | 38.63890 | -104.16488 | 20845 ft | 471 kts | 114° |
| 2026-04-25 21:37 | 38.63074 | -104.13908 | 21133 ft | 475 kts | 114° |
| 2026-04-25 21:37 | 38.61400 | -104.08623 | 21706 ft | 483 kts | 115° |
| 2026-04-25 21:37 | 38.60148 | -104.04680 | 22144 ft | 488 kts | 115° |
| 2026-04-25 21:38 | 38.58864 | -104.00641 | 22600 ft | 492 kts | 115° |
| 2026-04-25 21:38 | 38.57568 | -103.96570 | 23047 ft | 496 kts | 115° |
| 2026-04-25 21:38 | 38.56262 | -103.92472 | 23485 ft | 500 kts | 115° |
| 2026-04-25 21:38 | 38.54943 | -103.88339 | 23879 ft | 503 kts | 115° |
| 2026-04-25 21:39 | 38.53605 | -103.84202 | 24265 ft | 505 kts | 117° |
| 2026-04-25 21:39 | 38.51865 | -103.80335 | 24634 ft | 502 kts | 129° |
| 2026-04-25 21:39 | 38.49785 | -103.76762 | 25062 ft | 501 kts | 132° |
| 2026-04-25 21:39 | 38.47612 | -103.73275 | 25467 ft | 503 kts | 134° |
| 2026-04-25 21:40 | 38.45403 | -103.69805 | 25776 ft | 507 kts | 134° |
| 2026-04-25 21:40 | 38.43162 | -103.66275 | 25797 ft | 517 kts | 133° |
| 2026-04-25 21:40 | 38.40894 | -103.62659 | 25803 ft | 525 kts | 133° |
| 2026-04-25 21:40 | 38.38620 | -103.58982 | 25814 ft | 531 kts | 132° |
| 2026-04-25 21:41 | 38.36340 | -103.55255 | 25813 ft | 535 kts | 132° |
| 2026-04-25 21:41 | 38.34059 | -103.51501 | 25807 ft | 535 kts | 132° |
| 2026-04-25 21:41 | 38.31787 | -103.47755 | 25817 ft | 534 kts | 132° |
| 2026-04-25 21:41 | 38.29514 | -103.44009 | 25829 ft | 534 kts | 132° |
| 2026-04-25 21:42 | 38.27240 | -103.40268 | 25839 ft | 535 kts | 132° |
| 2026-04-25 21:42 | 38.24957 | -103.36525 | 25844 ft | 535 kts | 132° |
| 2026-04-25 21:42 | 38.22673 | -103.32787 | 25836 ft | 535 kts | 132° |
| 2026-04-25 21:42 | 38.20387 | -103.29054 | 25831 ft | 535 kts | 132° |
| 2026-04-25 21:43 | 38.18103 | -103.25328 | 25834 ft | 535 kts | 132° |
| 2026-04-25 21:43 | 38.15813 | -103.21600 | 25826 ft | 535 kts | 132° |
| 2026-04-25 21:43 | 38.13520 | -103.17870 | 25821 ft | 535 kts | 132° |
| 2026-04-25 21:43 | 38.11225 | -103.14139 | 25808 ft | 535 kts | 132° |
| 2026-04-25 21:44 | 38.08934 | -103.10420 | 25797 ft | 536 kts | 132° |
| 2026-04-25 21:44 | 38.06637 | -103.06697 | 25813 ft | 536 kts | 132° |
| 2026-04-25 21:44 | 38.02035 | -102.99245 | 25827 ft | 537 kts | 132° |
| 2026-04-25 21:45 | 37.99731 | -102.95522 | 25838 ft | 537 kts | 132° |
| 2026-04-25 21:45 | 37.98205 | -102.93058 | 25845 ft | 536 kts | 132° |
| 2026-04-25 21:45 | 37.95123 | -102.88086 | 25851 ft | 536 kts | 132° |
| 2026-04-25 21:45 | 37.92819 | -102.84375 | 25848 ft | 536 kts | 132° |
| 2026-04-25 21:46 | 37.90511 | -102.80662 | 25851 ft | 536 kts | 132° |
| 2026-04-25 21:46 | 37.88203 | -102.76954 | 25842 ft | 536 kts | 132° |
| 2026-04-25 21:46 | 37.85896 | -102.73251 | 25838 ft | 537 kts | 132° |
| 2026-04-25 21:46 | 37.83580 | -102.69537 | 25821 ft | 537 kts | 132° |
| 2026-04-25 21:47 | 37.81270 | -102.65837 | 25812 ft | 537 kts | 132° |
| 2026-04-25 21:47 | 37.78953 | -102.62131 | 25798 ft | 537 kts | 132° |
| 2026-04-25 21:47 | 37.76638 | -102.58431 | 25784 ft | 537 kts | 132° |
| 2026-04-25 21:47 | 37.74321 | -102.54732 | 25770 ft | 537 kts | 132° |
| 2026-04-25 21:48 | 37.72006 | -102.51041 | 25761 ft | 537 kts | 133° |
| 2026-04-25 21:48 | 37.69687 | -102.47347 | 25766 ft | 537 kts | 133° |
| 2026-04-25 21:48 | 37.67396 | -102.43703 | 25763 ft | 537 kts | 133° |
| 2026-04-25 21:48 | 37.65073 | -102.40012 | 25761 ft | 537 kts | 133° |
| 2026-04-25 21:49 | 37.62751 | -102.36326 | 25757 ft | 537 kts | 133° |
| 2026-04-25 21:49 | 37.60429 | -102.32644 | 25757 ft | 536 kts | 133° |
| 2026-04-25 21:49 | 37.58077 | -102.28919 | 25760 ft | 536 kts | 133° |
| 2026-04-25 21:49 | 37.55784 | -102.25291 | 25758 ft | 536 kts | 133° |
| 2026-04-25 21:50 | 37.53460 | -102.21619 | 25757 ft | 536 kts | 133° |
| 2026-04-25 21:50 | 37.51135 | -102.17949 | 25761 ft | 536 kts | 133° |
| 2026-04-25 21:50 | 37.48811 | -102.14285 | 25759 ft | 536 kts | 133° |
| 2026-04-25 21:50 | 37.47237 | -102.11806 | 25772 ft | 536 kts | 133° |
| 2026-04-25 21:51 | 37.44157 | -102.06959 | 25777 ft | 535 kts | 133° |
| 2026-04-25 21:51 | 37.41830 | -102.03303 | 25779 ft | 535 kts | 133° |
| 2026-04-25 21:51 | 37.39503 | -101.99651 | 25785 ft | 535 kts | 133° |
| 2026-04-25 21:51 | 37.37174 | -101.95998 | 25788 ft | 535 kts | 133° |
| 2026-04-25 21:52 | 37.34843 | -101.92349 | 25788 ft | 535 kts | 133° |
| 2026-04-25 21:52 | 37.32512 | -101.88702 | 25786 ft | 535 kts | 133° |
| 2026-04-25 21:52 | 37.30180 | -101.85056 | 25784 ft | 535 kts | 133° |
| 2026-04-25 21:52 | 37.27848 | -101.81415 | 25797 ft | 535 kts | 133° |
| 2026-04-25 21:53 | 37.25514 | -101.77776 | 25801 ft | 535 kts | 133° |
| 2026-04-25 21:53 | 37.23180 | -101.74141 | 25810 ft | 535 kts | 133° |
| 2026-04-25 21:53 | 37.20846 | -101.70509 | 25811 ft | 535 kts | 133° |
| 2026-04-25 21:53 | 37.18510 | -101.66877 | 25805 ft | 535 kts | 133° |
| 2026-04-25 21:54 | 37.16173 | -101.63249 | 25816 ft | 535 kts | 133° |
| 2026-04-25 21:54 | 37.13836 | -101.59625 | 25826 ft | 535 kts | 133° |
| 2026-04-25 21:54 | 37.11495 | -101.55999 | 25835 ft | 535 kts | 133° |
| 2026-04-25 21:54 | 37.09153 | -101.52374 | 25839 ft | 535 kts | 133° |
| 2026-04-25 21:55 | 37.06812 | -101.48756 | 25841 ft | 535 kts | 133° |
| 2026-04-25 21:55 | 37.04468 | -101.45135 | 25840 ft | 535 kts | 133° |
| 2026-04-25 21:55 | 37.02122 | -101.41517 | 25839 ft | 535 kts | 133° |
| 2026-04-25 21:55 | 36.99776 | -101.37902 | 25831 ft | 535 kts | 133° |
| 2026-04-25 21:56 | 36.97431 | -101.34294 | 25826 ft | 535 kts | 133° |
| 2026-04-25 21:56 | 36.95874 | -101.31900 | 25816 ft | 535 kts | 133° |
| 2026-04-25 21:56 | 36.92734 | -101.27075 | 25803 ft | 535 kts | 133° |
| 2026-04-25 21:56 | 36.90379 | -101.23463 | 25802 ft | 535 kts | 133° |
| 2026-04-25 21:57 | 36.88028 | -101.19860 | 25804 ft | 535 kts | 133° |
| 2026-04-25 21:57 | 36.85673 | -101.16254 | 25802 ft | 535 kts | 133° |
| 2026-04-25 21:57 | 36.83322 | -101.12660 | 25805 ft | 535 kts | 133° |
| 2026-04-25 21:57 | 36.80966 | -101.09060 | 25806 ft | 535 kts | 133° |
| 2026-04-25 21:58 | 36.78611 | -101.05466 | 25809 ft | 535 kts | 133° |
| 2026-04-25 21:58 | 36.76254 | -101.01874 | 25793 ft | 535 kts | 133° |
| 2026-04-25 21:58 | 36.73897 | -100.98285 | 25792 ft | 535 kts | 133° |
| 2026-04-25 21:58 | 36.71538 | -100.94697 | 25782 ft | 535 kts | 133° |
| 2026-04-25 21:59 | 36.69178 | -100.91110 | 25783 ft | 535 kts | 133° |
| 2026-04-25 21:59 | 36.66818 | -100.87530 | 25789 ft | 535 kts | 133° |
| 2026-04-25 21:59 | 36.64458 | -100.83951 | 25794 ft | 535 kts | 133° |
| 2026-04-25 22:00 | 36.59723 | -100.76784 | 25802 ft | 535 kts | 133° |
| 2026-04-25 22:00 | 36.57359 | -100.73211 | 25809 ft | 535 kts | 133° |
| 2026-04-25 22:00 | 36.54995 | -100.69642 | 25812 ft | 535 kts | 133° |
| 2026-04-25 22:00 | 36.52627 | -100.66071 | 25817 ft | 535 kts | 133° |
| 2026-04-25 22:01 | 36.50288 | -100.62547 | 25817 ft | 535 kts | 133° |
| 2026-04-25 22:01 | 36.47922 | -100.58986 | 25816 ft | 535 kts | 133° |
| 2026-04-25 22:01 | 36.45550 | -100.55420 | 25808 ft | 535 kts | 133° |
| 2026-04-25 22:01 | 36.43947 | -100.53013 | 25798 ft | 535 kts | 134° |
| 2026-04-25 22:02 | 36.40802 | -100.48294 | 25791 ft | 536 kts | 133° |
| 2026-04-25 22:02 | 36.38424 | -100.44731 | 25785 ft | 536 kts | 133° |
| 2026-04-25 22:02 | 36.36047 | -100.41172 | 25770 ft | 536 kts | 133° |
| 2026-04-25 22:02 | 36.33662 | -100.37606 | 25766 ft | 536 kts | 134° |
| 2026-04-25 22:03 | 36.31279 | -100.34046 | 25750 ft | 536 kts | 134° |
| 2026-04-25 22:03 | 36.28896 | -100.30490 | 25742 ft | 536 kts | 133° |
| 2026-04-25 22:03 | 36.26511 | -100.26934 | 25739 ft | 536 kts | 134° |
| 2026-04-25 22:03 | 36.24123 | -100.23378 | 25738 ft | 536 kts | 134° |
| 2026-04-25 22:04 | 36.21735 | -100.19826 | 25735 ft | 537 kts | 134° |
| 2026-04-25 22:04 | 36.19346 | -100.16276 | 25735 ft | 537 kts | 134° |
| 2026-04-25 22:04 | 36.16955 | -100.12726 | 25736 ft | 537 kts | 134° |
| 2026-04-25 22:04 | 36.14560 | -100.09175 | 25738 ft | 537 kts | 134° |
| 2026-04-25 22:05 | 36.12164 | -100.05626 | 25738 ft | 538 kts | 134° |
| 2026-04-25 22:05 | 36.09767 | -100.02079 | 25731 ft | 538 kts | 134° |
| 2026-04-25 22:05 | 36.07366 | -99.98530 | 25734 ft | 538 kts | 134° |
| 2026-04-25 22:05 | 36.04964 | -99.94983 | 25731 ft | 538 kts | 134° |
| 2026-04-25 22:06 | 36.02568 | -99.91446 | 25725 ft | 537 kts | 134° |
| 2026-04-25 22:06 | 36.00167 | -99.87908 | 25719 ft | 537 kts | 134° |
| 2026-04-25 22:06 | 35.97771 | -99.84380 | 25724 ft | 537 kts | 134° |
| 2026-04-25 22:06 | 35.95403 | -99.80899 | 25716 ft | 537 kts | 134° |
| 2026-04-25 22:07 | 35.92969 | -99.77323 | 25704 ft | 537 kts | 134° |
| 2026-04-25 22:07 | 35.91380 | -99.74991 | 25698 ft | 537 kts | 134° |
| 2026-04-25 22:07 | 35.88167 | -99.70279 | 25699 ft | 536 kts | 134° |
| 2026-04-25 22:07 | 35.85763 | -99.66757 | 25700 ft | 536 kts | 134° |
| 2026-04-25 22:08 | 35.83365 | -99.63248 | 25700 ft | 536 kts | 134° |
| 2026-04-25 22:08 | 35.80964 | -99.59738 | 25702 ft | 535 kts | 134° |
| 2026-04-25 22:08 | 35.78567 | -99.56236 | 25706 ft | 535 kts | 134° |
| 2026-04-25 22:08 | 35.76196 | -99.52777 | 25707 ft | 535 kts | 134° |
| 2026-04-25 22:09 | 35.73922 | -99.49151 | 25693 ft | 540 kts | 124° |
| 2026-04-25 22:09 | 35.72351 | -99.44942 | 25725 ft | 544 kts | 109° |
| 2026-04-25 22:09 | 35.71676 | -99.40364 | 25734 ft | 546 kts | 95° |
| 2026-04-25 22:09 | 35.71430 | -99.35700 | 25733 ft | 546 kts | 93° |
| 2026-04-25 22:10 | 35.71231 | -99.31044 | 25725 ft | 544 kts | 93° |
| 2026-04-25 22:10 | 35.71035 | -99.26489 | 25667 ft | 522 kts | 93° |
| 2026-04-25 22:10 | 35.70826 | -99.22115 | 25416 ft | 503 kts | 94° |
| 2026-04-25 22:10 | 35.70599 | -99.17884 | 25085 ft | 489 kts | 94° |
| 2026-04-25 22:11 | 35.70360 | -99.13735 | 24492 ft | 484 kts | 94° |
| 2026-04-25 22:11 | 35.70114 | -99.09634 | 23854 ft | 479 kts | 94° |
| 2026-04-25 22:11 | 35.69865 | -99.05573 | 23212 ft | 471 kts | 94° |
| 2026-04-25 22:11 | 35.69619 | -99.01585 | 22472 ft | 464 kts | 94° |
| 2026-04-25 22:12 | 35.69376 | -98.97654 | 21761 ft | 458 kts | 94° |
| 2026-04-25 22:12 | 35.69137 | -98.93778 | 21060 ft | 452 kts | 95° |
| 2026-04-25 22:12 | 35.68901 | -98.89949 | 20367 ft | 446 kts | 95° |
| 2026-04-25 22:12 | 35.68824 | -98.88718 | 20166 ft | 445 kts | 95° |
| 2026-04-25 22:13 | 35.68434 | -98.82429 | 19052 ft | 436 kts | 95° |
| 2026-04-25 22:13 | 35.68202 | -98.78724 | 18407 ft | 432 kts | 95° |
| 2026-04-25 22:13 | 35.67972 | -98.75064 | 17725 ft | 427 kts | 95° |
| 2026-04-25 22:13 | 35.67742 | -98.71441 | 17010 ft | 423 kts | 95° |
| 2026-04-25 22:14 | 35.67515 | -98.67858 | 16301 ft | 418 kts | 95° |
| 2026-04-25 22:14 | 35.67288 | -98.64310 | 15588 ft | 414 kts | 95° |
| 2026-04-25 22:14 | 35.67064 | -98.60804 | 14922 ft | 409 kts | 95° |
| 2026-04-25 22:14 | 35.66916 | -98.58508 | 14486 ft | 406 kts | 95° |
| 2026-04-25 22:15 | 35.66694 | -98.55081 | 13823 ft | 399 kts | 95° |
| 2026-04-25 22:15 | 35.66477 | -98.51723 | 13122 ft | 388 kts | 95° |
| 2026-04-25 22:15 | 35.66265 | -98.48462 | 12398 ft | 377 kts | 96° |
| 2026-04-25 22:16 | 35.65863 | -98.42308 | 11026 ft | 350 kts | 96° |
| 2026-04-25 22:16 | 35.65586 | -98.38422 | 10140 ft | 338 kts | 99° |
| 2026-04-25 22:16 | 35.65305 | -98.36521 | 9695 ft | 332 kts | 104° |
| 2026-04-25 22:16 | 35.64755 | -98.33799 | 8984 ft | 325 kts | 107° |
| 2026-04-25 22:17 | 35.64180 | -98.31161 | 8480 ft | 313 kts | 107° |
| 2026-04-25 22:17 | 35.63640 | -98.28633 | 8073 ft | 300 kts | 106° |
| 2026-04-25 22:17 | 35.63139 | -98.26195 | 7665 ft | 289 kts | 105° |
| 2026-04-25 22:17 | 35.62667 | -98.23839 | 7334 ft | 278 kts | 105° |
| 2026-04-25 22:18 | 35.62218 | -98.21580 | 7038 ft | 267 kts | 105° |
| 2026-04-25 22:18 | 35.61787 | -98.19405 | 6772 ft | 255 kts | 105° |
| 2026-04-25 22:18 | 35.61394 | -98.17348 | 6503 ft | 240 kts | 104° |
| 2026-04-25 22:18 | 35.61036 | -98.15398 | 6223 ft | 228 kts | 104° |
| 2026-04-25 22:19 | 35.60696 | -98.13547 | 5919 ft | 217 kts | 104° |
| 2026-04-25 22:19 | 35.60368 | -98.11766 | 5608 ft | 211 kts | 104° |
| 2026-04-25 22:19 | 35.60048 | -98.10033 | 5311 ft | 205 kts | 104° |
| 2026-04-25 22:19 | 35.59739 | -98.08363 | 5202 ft | 197 kts | 104° |
| 2026-04-25 22:20 | 35.59436 | -98.06729 | 5083 ft | 200 kts | 104° |
| 2026-04-25 22:20 | 35.59126 | -98.05056 | 5040 ft | 201 kts | 103° |
| 2026-04-25 22:20 | 35.58817 | -98.03390 | 5023 ft | 199 kts | 104° |
| 2026-04-25 22:20 | 35.58514 | -98.01763 | 4999 ft | 193 kts | 103° |
| 2026-04-25 22:21 | 35.58214 | -98.00150 | 5032 ft | 196 kts | 103° |
| 2026-04-25 22:21 | 35.57906 | -97.98509 | 5035 ft | 198 kts | 104° |
| 2026-04-25 22:21 | 35.57591 | -97.96861 | 5037 ft | 199 kts | 104° |
| 2026-04-25 22:21 | 35.57274 | -97.95210 | 5018 ft | 196 kts | 104° |
| 2026-04-25 22:22 | 35.56969 | -97.93616 | 5009 ft | 189 kts | 104° |
| 2026-04-25 22:22 | 35.56670 | -97.92061 | 5007 ft | 186 kts | 104° |
| 2026-04-25 22:22 | 35.56377 | -97.90528 | 5016 ft | 184 kts | 104° |
| 2026-04-25 22:22 | 35.56081 | -97.88996 | 5018 ft | 185 kts | 104° |
| 2026-04-25 22:23 | 35.55787 | -97.87464 | 5021 ft | 184 kts | 104° |
| 2026-04-25 22:23 | 35.55492 | -97.85932 | 5017 ft | 184 kts | 104° |
| 2026-04-25 22:23 | 35.55199 | -97.84408 | 5012 ft | 182 kts | 104° |
| 2026-04-25 22:23 | 35.54909 | -97.82899 | 5012 ft | 181 kts | 104° |
| 2026-04-25 22:24 | 35.54619 | -97.81397 | 5020 ft | 180 kts | 104° |
| 2026-04-25 22:24 | 35.54330 | -97.79903 | 5017 ft | 180 kts | 104° |
| 2026-04-25 22:24 | 35.54040 | -97.78399 | 4964 ft | 184 kts | 104° |
| 2026-04-25 22:24 | 35.53742 | -97.76863 | 4858 ft | 184 kts | 104° |
| 2026-04-25 22:25 | 35.53558 | -97.75319 | 4705 ft | 184 kts | 83° |
| 2026-04-25 22:25 | 35.53820 | -97.73814 | 4604 ft | 179 kts | 79° |
| 2026-04-25 22:25 | 35.54068 | -97.72318 | 4484 ft | 179 kts | 80° |
| 2026-04-25 22:25 | 35.54311 | -97.70816 | 4372 ft | 179 kts | 80° |
| 2026-04-25 22:26 | 35.54551 | -97.69324 | 4272 ft | 178 kts | 80° |
| 2026-04-25 22:26 | 35.54787 | -97.67858 | 4172 ft | 174 kts | 81° |
| 2026-04-25 22:26 | 35.55020 | -97.66405 | 4090 ft | 174 kts | 81° |
| 2026-04-25 22:26 | 35.55252 | -97.64962 | 4101 ft | 174 kts | 80° |
| 2026-04-25 22:27 | 35.55446 | -97.63481 | 4010 ft | 176 kts | 92° |
| 2026-04-25 22:27 | 35.55097 | -97.62078 | 3834 ft | 172 kts | 122° |
| 2026-04-25 22:27 | 35.54263 | -97.61049 | 3660 ft | 170 kts | 147° |
| 2026-04-25 22:27 | 35.53150 | -97.60607 | 3448 ft | 169 kts | 176° |
| 2026-04-25 22:28 | 35.51996 | -97.60604 | 3231 ft | 164 kts | 178° |
| 2026-04-25 22:28 | 35.50871 | -97.60603 | 3092 ft | 165 kts | 178° |
| 2026-04-25 22:28 | 35.49720 | -97.60603 | 3043 ft | 167 kts | 178° |
| 2026-04-25 22:28 | 35.48575 | -97.60589 | 3031 ft | 159 kts | 178° |
| 2026-04-25 22:29 | 35.47505 | -97.60582 | 2944 ft | 151 kts | 177° |
| 2026-04-25 22:29 | 35.46478 | -97.60578 | 2818 ft | 145 kts | 177° |
| 2026-04-25 22:29 | 35.45464 | -97.60585 | 2669 ft | 149 kts | 178° |
| 2026-04-25 22:30 | 35.43413 | -97.60563 | 2262 ft | 153 kts | 179° |
| 2026-04-25 22:30 | 35.42347 | -97.60577 | 1916 ft | 154 kts | 179° |
| 2026-04-25 22:30 | 35.41281 | -97.60593 | 1560 ft | 154 kts | 175° |
| 2026-04-25 22:30 | 35.40579 | -97.60581 | 1383 ft | 151 kts | 175° |
| 2026-04-25 22:31 | 35.39208 | -97.60579 | 1283 ft | 134 kts | 173° |
| 2026-04-25 22:31 | 35.38407 | -97.60573 | 1274 ft | 97 kts | 180° |
| 2026-04-25 22:31 | 35.37850 | -97.60574 | 1271 ft | 62 kts | 180° |
| 2026-04-25 22:31 | 35.37524 | -97.60563 | 1272 ft | 35 kts | 176° |
| 2026-04-25 22:32 | 35.37495 | -97.60561 | 1269 ft | 0 kts | 176° |
| 2026-04-25 22:32 | 35.37494 | -97.60554 | 1268 ft | 1 kts | 104° |
| 2026-04-25 22:32 | 35.37499 | -97.60550 | 1269 ft | 1 kts | 36° |
| 2026-04-25 22:33 | 35.37509 | -97.60551 | 1269 ft | 2 kts | 358° |
| 2026-04-25 22:33 | 35.37534 | -97.60555 | 1270 ft | 6 kts | 353° |
| 2026-04-25 22:33 | 35.37601 | -97.60556 | 1272 ft | 14 kts | 359° |
| 2026-04-25 22:33 | 35.37729 | -97.60558 | 1272 ft | 23 kts | 358° |
| 2026-04-25 22:34 | 35.37918 | -97.60563 | 1270 ft | 22 kts | 358° |
| 2026-04-25 22:34 | 35.38047 | -97.60503 | 1271 ft | 22 kts | 68° |
| 2026-04-25 22:34 | 35.38097 | -97.60343 | 1276 ft | 21 kts | 20° |
| 2026-04-25 22:34 | 35.38241 | -97.60335 | 1276 ft | 20 kts | 359° |
| 2026-04-25 22:35 | 35.38381 | -97.60335 | 1278 ft | 20 kts | 0° |
| 2026-04-25 22:35 | 35.38517 | -97.60333 | 1279 ft | 19 kts | 0° |
| 2026-04-25 22:35 | 35.38648 | -97.60336 | 1280 ft | 19 kts | 1° |
| 2026-04-25 22:35 | 35.38775 | -97.60341 | 1282 ft | 18 kts | 356° |
| 2026-04-25 22:36 | 35.38897 | -97.60349 | 1285 ft | 17 kts | 356° |
| 2026-04-25 22:36 | 35.39015 | -97.60356 | 1286 ft | 17 kts | 358° |
| 2026-04-25 22:36 | 35.39129 | -97.60363 | 1288 ft | 16 kts | 356° |
| 2026-04-25 22:36 | 35.39215 | -97.60309 | 1288 ft | 15 kts | 81° |
| 2026-04-25 22:37 | 35.39217 | -97.60180 | 1290 ft | 15 kts | 90° |
| 2026-04-25 22:37 | 35.39217 | -97.60056 | 1290 ft | 14 kts | 90° |
| 2026-04-25 22:37 | 35.39219 | -97.59937 | 1291 ft | 14 kts | 89° |
| 2026-04-25 22:37 | 35.39253 | -97.59842 | 1291 ft | 13 kts | 24° |
| 2026-04-25 22:38 | 35.39342 | -97.59826 | 1290 ft | 13 kts | 0° |
| 2026-04-25 22:38 | 35.39427 | -97.59807 | 1289 ft | 12 kts | 16° |
| 2026-04-25 22:38 | 35.39481 | -97.59801 | 1289 ft | 0 kts | 359° |